Back to Top

Language: 

My Weather Underground Personal Weather Station Historical Data with Graphs...

Delerius Weather Station Historical Data
Daily Summary for February 18, 2017 Units:  Both    English   Metric
« Previous Day
Next Day »
Daily Weekly Monthly Yearly Custom
  High: Low: Average:
Temperature: 55.1 °F /  12.8 °C 43.4 °F /  6.3 °C 48.8 °F /  9.3 °C
Dew Point: 48.4 °F /  9.1 °C 40.9 °F /  4.9 °C 44.8 °F /  7.1 °C
Humidity: 93 % 77 % 86 %
Wind Speed: 13.0 mph /  20.9 km/h - 4 mph /  6.4 km/h
Wind Gust: 18.0 mph /  29 km/h - -
Wind:- - SSW
Pressure: 30.24 in /  1023.9 hPa 30.07 in /  1018.2 hPa -
Precipitation: 0.00 in /  0 mm    
Historical Graphs
 
 
Tabular Data for February 18, 2017
Time Temperature Dew Point Pressure Wind Wind Speed Wind Gust Humidity Rainfall Rate (Hourly) solar Conditions
00:00 48.6 °F /  9.2 °C 44.3 °F /  6.8 °C 30.24 in /  1023.9 hPa SW 1.0 mph /  1.6 km/h 1.0 mph /  1.6 km/h 85 % 0.00 in /  0 mm 0 W/m2
00:05 48.4 °F /  9.1 °C 44.1 °F /  6.7 °C 30.23 in /  1023.6 hPa Calm   1.0 mph /  1.6 km/h 85 % 0.00 in /  0 mm 0 W/m2
00:15 48.1 °F /  8.9 °C 43.8 °F /  6.6 °C 30.23 in /  1023.6 hPa Calm     85 % 0.00 in /  0 mm 0 W/m2
00:20 48.0 °F /  8.9 °C 44.0 °F /  6.7 °C 30.23 in /  1023.6 hPa Calm   2.0 mph /  3.2 km/h 86 % 0.00 in /  0 mm 0 W/m2
00:35 47.6 °F /  8.7 °C 43.9 °F /  6.6 °C 30.23 in /  1023.6 hPa South 1.0 mph /  1.6 km/h 1.0 mph /  1.6 km/h 87 % 0.00 in /  0 mm 0 W/m2
00:40 47.4 °F /  8.6 °C 43.7 °F /  6.5 °C 30.23 in /  1023.6 hPa Calm   1.0 mph /  1.6 km/h 87 % 0.00 in /  0 mm 0 W/m2
00:45 47.3 °F /  8.5 °C 43.9 °F /  6.6 °C 30.23 in /  1023.6 hPa Calm   1.0 mph /  1.6 km/h 88 % 0.00 in /  0 mm 0 W/m2
00:50 47.3 °F /  8.5 °C 43.9 °F /  6.6 °C 30.22 in /  1023.2 hPa Calm     88 % 0.00 in /  0 mm 0 W/m2
01:00 47.1 °F /  8.4 °C 43.7 °F /  6.5 °C 30.23 in /  1023.6 hPa Calm     88 % 0.00 in /  0 mm 0 W/m2
01:10 47.1 °F /  8.4 °C 44.0 °F /  6.7 °C 30.23 in /  1023.6 hPa Calm   6.0 mph /  9.7 km/h 89 % 0.00 in /  0 mm 0 W/m2
01:15 47.1 °F /  8.4 °C 44.0 °F /  6.7 °C 30.22 in /  1023.2 hPa Calm   6.0 mph /  9.7 km/h 89 % 0.00 in /  0 mm 0 W/m2
01:25 47.1 °F /  8.4 °C 44.0 °F /  6.7 °C 30.22 in /  1023.2 hPa Calm   6.0 mph /  9.7 km/h 89 % 0.00 in /  0 mm 0 W/m2
01:30 47.0 °F /  8.3 °C 43.9 °F /  6.6 °C 30.22 in /  1023.2 hPa Calm   6.0 mph /  9.7 km/h 89 % 0.00 in /  0 mm 0 W/m2
01:35 47.0 °F /  8.3 °C 43.9 °F /  6.6 °C 30.22 in /  1023.2 hPa Calm   6.0 mph /  9.7 km/h 89 % 0.00 in /  0 mm 0 W/m2
01:40 47.0 °F /  8.3 °C 43.9 °F /  6.6 °C 30.22 in /  1023.2 hPa Calm   6.0 mph /  9.7 km/h 89 % 0.00 in /  0 mm 0 W/m2
01:50 46.9 °F /  8.3 °C 43.8 °F /  6.6 °C 30.22 in /  1023.2 hPa Calm   6.0 mph /  9.7 km/h 89 % 0.00 in /  0 mm 0 W/m2
01:55 46.9 °F /  8.3 °C 43.8 °F /  6.6 °C 30.22 in /  1023.2 hPa Calm   6.0 mph /  9.7 km/h 89 % 0.00 in /  0 mm 0 W/m2
02:05 46.6 °F /  8.1 °C 43.5 °F /  6.4 °C 30.21 in /  1022.9 hPa Calm   6.0 mph /  9.7 km/h 89 % 0.00 in /  0 mm 0 W/m2
02:10 46.5 °F /  8.1 °C 43.7 °F /  6.5 °C 30.21 in /  1022.9 hPa Calm   6.0 mph /  9.7 km/h 90 % 0.00 in /  0 mm 0 W/m2
02:20 46.2 °F /  7.9 °C 43.4 °F /  6.3 °C 30.21 in /  1022.9 hPa South 1.0 mph /  1.6 km/h 1.0 mph /  1.6 km/h 90 % 0.00 in /  0 mm 0 W/m2
02:25 46.1 °F /  7.8 °C 43.3 °F /  6.3 °C 30.21 in /  1022.9 hPa South 1.0 mph /  1.6 km/h 6.0 mph /  9.7 km/h 90 % 0.00 in /  0 mm 0 W/m2
02:30 46.1 °F /  7.8 °C 43.6 °F /  6.4 °C 30.21 in /  1022.9 hPa Calm   6.0 mph /  9.7 km/h 91 % 0.00 in /  0 mm 0 W/m2
02:35 46.1 °F /  7.8 °C 43.6 °F /  6.4 °C 30.21 in /  1022.9 hPa Calm   6.0 mph /  9.7 km/h 91 % 0.00 in /  0 mm 0 W/m2
02:45 46.0 °F /  7.8 °C 43.5 °F /  6.4 °C 30.21 in /  1022.9 hPa South 1.0 mph /  1.6 km/h 6.0 mph /  9.7 km/h 91 % 0.00 in /  0 mm 0 W/m2
02:50 46.0 °F /  7.8 °C 43.5 °F /  6.4 °C 30.21 in /  1022.9 hPa South 1.0 mph /  1.6 km/h 1.0 mph /  1.6 km/h 91 % 0.00 in /  0 mm 0 W/m2
02:55 45.9 °F /  7.7 °C 43.4 °F /  6.3 °C 30.21 in /  1022.9 hPa Calm   6.0 mph /  9.7 km/h 91 % 0.00 in /  0 mm 0 W/m2
03:05 45.7 °F /  7.6 °C 43.2 °F /  6.2 °C 30.20 in /  1022.6 hPa Calm   6.0 mph /  9.7 km/h 91 % 0.00 in /  0 mm 0 W/m2
03:15 45.7 °F /  7.6 °C 43.5 °F /  6.4 °C 30.19 in /  1022.2 hPa South 1.0 mph /  1.6 km/h 6.0 mph /  9.7 km/h 92 % 0.00 in /  0 mm 0 W/m2
03:25 46.0 °F /  7.8 °C 43.5 °F /  6.4 °C 30.19 in /  1022.2 hPa Calm   6.0 mph /  9.7 km/h 91 % 0.00 in /  0 mm 0 W/m2
03:30 46.1 °F /  7.8 °C 43.6 °F /  6.4 °C 30.19 in /  1022.2 hPa Calm   6.0 mph /  9.7 km/h 91 % 0.00 in /  0 mm 0 W/m2
03:35 46.2 °F /  7.9 °C 43.7 °F /  6.5 °C 30.19 in /  1022.2 hPa Calm   6.0 mph /  9.7 km/h 91 % 0.00 in /  0 mm 0 W/m2
03:45 46.2 °F /  7.9 °C 43.7 °F /  6.5 °C 30.19 in /  1022.2 hPa Calm   6.0 mph /  9.7 km/h 91 % 0.00 in /  0 mm 0 W/m2
03:50 46.2 °F /  7.9 °C 43.7 °F /  6.5 °C 30.19 in /  1022.2 hPa Calm   6.0 mph /  9.7 km/h 91 % 0.00 in /  0 mm 0 W/m2
03:55 46.1 °F /  7.8 °C 43.6 °F /  6.4 °C 30.18 in /  1021.9 hPa South 1.0 mph /  1.6 km/h 6.0 mph /  9.7 km/h 91 % 0.00 in /  0 mm 0 W/m2
04:00 45.9 °F /  7.7 °C 43.4 °F /  6.3 °C 30.18 in /  1021.9 hPa South 1.0 mph /  1.6 km/h 6.0 mph /  9.7 km/h 91 % 0.00 in /  0 mm 0 W/m2
04:10 45.7 °F /  7.6 °C 43.2 °F /  6.2 °C 30.18 in /  1021.9 hPa Calm   6.0 mph /  9.7 km/h 91 % 0.00 in /  0 mm 0 W/m2
04:15 45.7 °F /  7.6 °C 43.2 °F /  6.2 °C 30.18 in /  1021.9 hPa Calm   6.0 mph /  9.7 km/h 91 % 0.00 in /  0 mm 0 W/m2
04:20 45.7 °F /  7.6 °C 43.2 °F /  6.2 °C 30.18 in /  1021.9 hPa Calm   6.0 mph /  9.7 km/h 91 % 0.00 in /  0 mm 0 W/m2
04:25 45.6 °F /  7.6 °C 42.8 °F /  6 °C 30.18 in /  1021.9 hPa Calm   6.0 mph /  9.7 km/h 90 % 0.00 in /  0 mm 0 W/m2
04:30 45.5 °F /  7.5 °C 42.7 °F /  5.9 °C 30.18 in /  1021.9 hPa Calm   6.0 mph /  9.7 km/h 90 % 0.00 in /  0 mm 0 W/m2
04:40 45.2 °F /  7.3 °C 42.4 °F /  5.8 °C 30.18 in /  1021.9 hPa Calm   6.0 mph /  9.7 km/h 90 % 0.00 in /  0 mm 0 W/m2
04:45 45.0 °F /  7.2 °C 42.2 °F /  5.7 °C 30.19 in /  1022.2 hPa Calm   6.0 mph /  9.7 km/h 90 % 0.00 in /  0 mm 0 W/m2
04:50 44.8 °F /  7.1 °C 42.0 °F /  5.6 °C 30.18 in /  1021.9 hPa Calm   6.0 mph /  9.7 km/h 90 % 0.00 in /  0 mm 0 W/m2
04:55 44.6 °F /  7 °C 41.8 °F /  5.4 °C 30.18 in /  1021.9 hPa Calm   6.0 mph /  9.7 km/h 90 % 0.00 in /  0 mm 0 W/m2
05:05 44.3 °F /  6.8 °C 41.8 °F /  5.4 °C 30.18 in /  1021.9 hPa South 1.0 mph /  1.6 km/h 6.0 mph /  9.7 km/h 91 % 0.00 in /  0 mm 0 W/m2
05:10 44.1 °F /  6.7 °C 41.6 °F /  5.3 °C 30.18 in /  1021.9 hPa Calm   6.0 mph /  9.7 km/h 91 % 0.00 in /  0 mm 0 W/m2
05:15 43.9 °F /  6.6 °C 41.4 °F /  5.2 °C 30.18 in /  1021.9 hPa South 1.0 mph /  1.6 km/h 6.0 mph /  9.7 km/h 91 % 0.00 in /  0 mm 0 W/m2
05:20 43.8 °F /  6.6 °C 41.3 °F /  5.2 °C 30.18 in /  1021.9 hPa NE 1.0 mph /  1.6 km/h 6.0 mph /  9.7 km/h 91 % 0.00 in /  0 mm 0 W/m2
05:30 43.5 °F /  6.4 °C 41.0 °F /  5 °C 30.18 in /  1021.9 hPa NE 1.0 mph /  1.6 km/h 6.0 mph /  9.7 km/h 91 % 0.00 in /  0 mm 0 W/m2
05:35 43.4 °F /  6.3 °C 40.9 °F /  4.9 °C 30.18 in /  1021.9 hPa NE 2.0 mph /  3.2 km/h 6.0 mph /  9.7 km/h 91 % 0.00 in /  0 mm 0 W/m2
05:40 43.5 °F /  6.4 °C 41.3 °F /  5.2 °C 30.17 in /  1021.6 hPa NE 1.0 mph /  1.6 km/h 1.0 mph /  1.6 km/h 92 % 0.00 in /  0 mm 0 W/m2
05:45 43.5 °F /  6.4 °C 41.3 °F /  5.2 °C 30.18 in /  1021.9 hPa NE 1.0 mph /  1.6 km/h 3.0 mph /  4.8 km/h 92 % 0.00 in /  0 mm 0 W/m2
05:50 43.7 °F /  6.5 °C 41.5 °F /  5.3 °C 30.17 in /  1021.6 hPa West 2.0 mph /  3.2 km/h 2.0 mph /  3.2 km/h 92 % 0.00 in /  0 mm 0 W/m2
06:05 43.6 °F /  6.4 °C 41.1 °F /  5.1 °C 30.17 in /  1021.6 hPa East 1.0 mph /  1.6 km/h 6.0 mph /  9.7 km/h 91 % 0.00 in /  0 mm 0 W/m2
06:10 43.6 °F /  6.4 °C 41.1 °F /  5.1 °C 30.17 in /  1021.6 hPa Calm   6.0 mph /  9.7 km/h 91 % 0.00 in /  0 mm 0 W/m2
06:15 43.6 °F /  6.4 °C 41.1 °F /  5.1 °C 30.17 in /  1021.6 hPa Calm   6.0 mph /  9.7 km/h 91 % 0.00 in /  0 mm 0 W/m2
06:20 43.5 °F /  6.4 °C 41.0 °F /  5 °C 30.17 in /  1021.6 hPa East 1.0 mph /  1.6 km/h 6.0 mph /  9.7 km/h 91 % 0.00 in /  0 mm 0 W/m2
06:25 43.5 °F /  6.4 °C 41.3 °F /  5.2 °C 30.17 in /  1021.6 hPa East 1.0 mph /  1.6 km/h 6.0 mph /  9.7 km/h 92 % 0.00 in /  0 mm 0 W/m2
06:35 43.5 °F /  6.4 °C 41.3 °F /  5.2 °C 30.17 in /  1021.6 hPa East 1.0 mph /  1.6 km/h 6.0 mph /  9.7 km/h 92 % 0.00 in /  0 mm 0 W/m2
06:40 43.5 °F /  6.4 °C 41.3 °F /  5.2 °C 30.17 in /  1021.6 hPa East 1.0 mph /  1.6 km/h 1.0 mph /  1.6 km/h 92 % 0.00 in /  0 mm 0 W/m2
06:45 43.4 °F /  6.3 °C 41.2 °F /  5.1 °C 30.17 in /  1021.6 hPa Calm   6.0 mph /  9.7 km/h 92 % 0.00 in /  0 mm 0 W/m2
06:50 43.5 °F /  6.4 °C 41.6 °F /  5.3 °C 30.17 in /  1021.6 hPa Calm   6.0 mph /  9.7 km/h 93 % 0.00 in /  0 mm 0 W/m2
06:55 43.8 °F /  6.6 °C 41.6 °F /  5.3 °C 30.17 in /  1021.6 hPa West 1.0 mph /  1.6 km/h 6.0 mph /  9.7 km/h 92 % 0.00 in /  0 mm 0 W/m2
07:05 43.7 °F /  6.5 °C 41.5 °F /  5.3 °C 30.17 in /  1021.6 hPa Calm   6.0 mph /  9.7 km/h 92 % 0.00 in /  0 mm 0 W/m2
07:10 43.7 °F /  6.5 °C 41.5 °F /  5.3 °C 30.17 in /  1021.6 hPa Calm   6.0 mph /  9.7 km/h 92 % 0.00 in /  0 mm 0 W/m2
07:15 43.7 °F /  6.5 °C 41.5 °F /  5.3 °C 30.18 in /  1021.9 hPa NW 1.0 mph /  1.6 km/h 6.0 mph /  9.7 km/h 92 % 0.00 in /  0 mm 0 W/m2
07:20 43.5 °F /  6.4 °C 41.3 °F /  5.2 °C 30.18 in /  1021.9 hPa NW 2.0 mph /  3.2 km/h 6.0 mph /  9.7 km/h 92 % 0.00 in /  0 mm 5 W/m2
07:30 43.6 °F /  6.4 °C 41.4 °F /  5.2 °C 30.18 in /  1021.9 hPa NW 2.0 mph /  3.2 km/h 2.0 mph /  3.2 km/h 92 % 0.00 in /  0 mm 11 W/m2
07:40 43.9 °F /  6.6 °C 41.7 °F /  5.4 °C 30.18 in /  1021.9 hPa WSW 1.0 mph /  1.6 km/h 1.0 mph /  1.6 km/h 92 % 0.00 in /  0 mm 16 W/m2
07:45 44.0 °F /  6.7 °C 41.8 °F /  5.4 °C 30.18 in /  1021.9 hPa West 1.0 mph /  1.6 km/h 6.0 mph /  9.7 km/h 92 % 0.00 in /  0 mm 18 W/m2
07:50 44.1 °F /  6.7 °C 41.9 °F /  5.5 °C 30.18 in /  1021.9 hPa West 1.0 mph /  1.6 km/h 6.0 mph /  9.7 km/h 92 % 0.00 in /  0 mm 19 W/m2
08:00 44.3 °F /  6.8 °C 41.8 °F /  5.4 °C 30.18 in /  1021.9 hPa West 1.0 mph /  1.6 km/h 1.0 mph /  1.6 km/h 91 % 0.00 in /  0 mm 37 W/m2
08:05 44.4 °F /  6.9 °C 41.9 °F /  5.5 °C 30.18 in /  1021.9 hPa Calm   6.0 mph /  9.7 km/h 91 % 0.00 in /  0 mm 44 W/m2
08:10 44.4 °F /  6.9 °C 41.9 °F /  5.5 °C 30.18 in /  1021.9 hPa Calm   6.0 mph /  9.7 km/h 91 % 0.00 in /  0 mm 32 W/m2
08:20 44.3 °F /  6.8 °C 41.8 °F /  5.4 °C 30.18 in /  1021.9 hPa Calm   6.0 mph /  9.7 km/h 91 % 0.00 in /  0 mm 35 W/m2
08:25 44.3 °F /  6.8 °C 41.8 °F /  5.4 °C 30.18 in /  1021.9 hPa Calm   6.0 mph /  9.7 km/h 91 % 0.00 in /  0 mm 40 W/m2
08:30 44.4 °F /  6.9 °C 41.9 °F /  5.5 °C 30.18 in /  1021.9 hPa Calm   6.0 mph /  9.7 km/h 91 % 0.00 in /  0 mm 76 W/m2
08:40 44.6 °F /  7 °C 42.1 °F /  5.6 °C 30.18 in /  1021.9 hPa Calm   6.0 mph /  9.7 km/h 91 % 0.00 in /  0 mm 67 W/m2
08:45 44.8 °F /  7.1 °C 42.3 °F /  5.7 °C 30.18 in /  1021.9 hPa West 1.0 mph /  1.6 km/h 6.0 mph /  9.7 km/h 91 % 0.00 in /  0 mm 90 W/m2
08:50 44.9 °F /  7.2 °C 42.4 °F /  5.8 °C 30.18 in /  1021.9 hPa West 1.0 mph /  1.6 km/h 1.0 mph /  1.6 km/h 91 % 0.00 in /  0 mm 88 W/m2
08:55 45.1 °F /  7.3 °C 42.6 °F /  5.9 °C 30.18 in /  1021.9 hPa Calm   6.0 mph /  9.7 km/h 91 % 0.00 in /  0 mm 81 W/m2
09:05 45.6 °F /  7.6 °C 43.1 °F /  6.2 °C 30.18 in /  1021.9 hPa West 1.0 mph /  1.6 km/h 4.0 mph /  6.4 km/h 91 % 0.00 in /  0 mm 86 W/m2
09:10 45.8 °F /  7.7 °C 43.3 °F /  6.3 °C 30.18 in /  1021.9 hPa West 1.0 mph /  1.6 km/h 6.0 mph /  9.7 km/h 91 % 0.00 in /  0 mm 86 W/m2
09:15 46.1 °F /  7.8 °C 43.3 °F /  6.3 °C 30.18 in /  1021.9 hPa West 2.0 mph /  3.2 km/h 6.0 mph /  9.7 km/h 90 % 0.00 in /  0 mm 98 W/m2
09:20 46.3 °F /  7.9 °C 43.5 °F /  6.4 °C 30.18 in /  1021.9 hPa West 1.0 mph /  1.6 km/h 1.0 mph /  1.6 km/h 90 % 0.00 in /  0 mm 121 W/m2
09:25 46.6 °F /  8.1 °C 43.8 °F /  6.6 °C 30.18 in /  1021.9 hPa West 1.0 mph /  1.6 km/h 3.0 mph /  4.8 km/h 90 % 0.00 in /  0 mm 128 W/m2
09:30 46.9 °F /  8.3 °C 44.1 °F /  6.7 °C 30.18 in /  1021.9 hPa West 2.0 mph /  3.2 km/h 2.0 mph /  3.2 km/h 90 % 0.00 in /  0 mm 118 W/m2
09:40 47.6 °F /  8.7 °C 44.5 °F /  6.9 °C 30.18 in /  1021.9 hPa SW 2.0 mph /  3.2 km/h 6.0 mph /  9.7 km/h 89 % 0.00 in /  0 mm 107 W/m2
09:45 48.1 °F /  8.9 °C 44.7 °F /  7.1 °C 30.19 in /  1022.2 hPa SSW 4.0 mph /  6.4 km/h 6.0 mph /  9.7 km/h 88 % 0.00 in /  0 mm 84 W/m2
09:50 48.4 °F /  9.1 °C 44.7 °F /  7.1 °C 30.19 in /  1022.2 hPa SW 4.0 mph /  6.4 km/h 4.0 mph /  6.4 km/h 87 % 0.00 in /  0 mm 84 W/m2
09:55 48.6 °F /  9.2 °C 44.9 °F /  7.2 °C 30.19 in /  1022.2 hPa SSW 3.0 mph /  4.8 km/h 6.0 mph /  9.7 km/h 87 % 0.00 in /  0 mm 100 W/m2
10:00 48.8 °F /  9.3 °C 44.8 °F /  7.1 °C 30.19 in /  1022.2 hPa SSW 3.0 mph /  4.8 km/h 6.0 mph /  9.7 km/h 86 % 0.00 in /  0 mm 104 W/m2
10:10 49.2 °F /  9.6 °C 45.2 °F /  7.3 °C 30.19 in /  1022.2 hPa South 4.0 mph /  6.4 km/h 6.0 mph /  9.7 km/h 86 % 0.00 in /  0 mm 121 W/m2
10:15 49.4 °F /  9.7 °C 45.1 °F /  7.3 °C 30.18 in /  1021.9 hPa SSW 4.0 mph /  6.4 km/h 6.0 mph /  9.7 km/h 85 % 0.00 in /  0 mm 130 W/m2
10:20 49.7 °F /  9.8 °C 45.4 °F /  7.4 °C 30.19 in /  1022.2 hPa SSW 3.0 mph /  4.8 km/h 7.0 mph /  11.3 km/h 85 % 0.00 in /  0 mm 128 W/m2
10:25 49.9 °F /  9.9 °C 45.6 °F /  7.6 °C 30.19 in /  1022.2 hPa SW 3.0 mph /  4.8 km/h 7.0 mph /  11.3 km/h 85 % 0.00 in /  0 mm 116 W/m2
10:35 50.2 °F /  10.1 °C 45.6 °F /  7.6 °C 30.19 in /  1022.2 hPa SW 4.0 mph /  6.4 km/h 6.0 mph /  9.7 km/h 84 % 0.00 in /  0 mm 88 W/m2
10:40 50.3 °F /  10.2 °C 45.6 °F /  7.6 °C 30.19 in /  1022.2 hPa SSW 3.0 mph /  4.8 km/h 6.0 mph /  9.7 km/h 84 % 0.00 in /  0 mm 84 W/m2
10:45 50.4 °F /  10.2 °C 45.7 °F /  7.6 °C 30.19 in /  1022.2 hPa SSW 3.0 mph /  4.8 km/h 6.0 mph /  9.7 km/h 84 % 0.00 in /  0 mm 97 W/m2
10:50 50.5 °F /  10.3 °C 45.8 °F /  7.7 °C 30.19 in /  1022.2 hPa SSW 2.0 mph /  3.2 km/h 2.0 mph /  3.2 km/h 84 % 0.00 in /  0 mm 98 W/m2
11:00 50.6 °F /  10.3 °C 45.9 °F /  7.7 °C 30.18 in /  1021.9 hPa SSW 1.0 mph /  1.6 km/h 6.0 mph /  9.7 km/h 84 % 0.00 in /  0 mm 107 W/m2
11:05 50.7 °F /  10.4 °C 46.0 °F /  7.8 °C 30.18 in /  1021.9 hPa SSW 1.0 mph /  1.6 km/h 6.0 mph /  9.7 km/h 84 % 0.00 in /  0 mm 105 W/m2
11:10 50.7 °F /  10.4 °C 45.7 °F /  7.6 °C 30.18 in /  1021.9 hPa SSW 1.0 mph /  1.6 km/h 1.0 mph /  1.6 km/h 83 % 0.00 in /  0 mm 104 W/m2
11:15 50.8 °F /  10.4 °C 45.8 °F /  7.7 °C 30.18 in /  1021.9 hPa Calm   6.0 mph /  9.7 km/h 83 % 0.00 in /  0 mm 121 W/m2
11:20 51.0 °F /  10.6 °C 46.0 °F /  7.8 °C 30.18 in /  1021.9 hPa Calm   6.0 mph /  9.7 km/h 83 % 0.00 in /  0 mm 121 W/m2
11:30 51.5 °F /  10.8 °C 46.5 °F /  8.1 °C 30.18 in /  1021.9 hPa Calm   6.0 mph /  9.7 km/h 83 % 0.00 in /  0 mm 135 W/m2
11:40 51.8 °F /  11 °C 46.5 °F /  8.1 °C 30.18 in /  1021.9 hPa SE 3.0 mph /  4.8 km/h 6.0 mph /  9.7 km/h 82 % 0.00 in /  0 mm 186 W/m2
11:45 51.9 °F /  11.1 °C 46.6 °F /  8.1 °C 30.18 in /  1021.9 hPa ESE 4.0 mph /  6.4 km/h 6.0 mph /  9.7 km/h 82 % 0.00 in /  0 mm 178 W/m2
11:50 52.1 °F /  11.2 °C 46.8 °F /  8.2 °C 30.18 in /  1021.9 hPa ESE 3.0 mph /  4.8 km/h 6.0 mph /  9.7 km/h 82 % 0.00 in /  0 mm 179 W/m2
11:55 52.2 °F /  11.2 °C 46.9 °F /  8.3 °C 30.17 in /  1021.6 hPa ESE 3.0 mph /  4.8 km/h 6.0 mph /  9.7 km/h 82 % 0.00 in /  0 mm 178 W/m2
12:05 52.6 °F /  11.4 °C 46.9 °F /  8.3 °C 30.17 in /  1021.6 hPa SSW 4.0 mph /  6.4 km/h 4.0 mph /  6.4 km/h 81 % 0.00 in /  0 mm 127 W/m2
12:10 52.7 °F /  11.5 °C 46.7 °F /  8.2 °C 30.16 in /  1021.2 hPa South 6.0 mph /  9.7 km/h 13.0 mph /  20.9 km/h 80 % 0.00 in /  0 mm 127 W/m2
12:15 52.6 °F /  11.4 °C 46.6 °F /  8.1 °C 30.16 in /  1021.2 hPa South 7.0 mph /  11.3 km/h 13.0 mph /  20.9 km/h 80 % 0.00 in /  0 mm 132 W/m2
12:25 52.6 °F /  11.4 °C 46.9 °F /  8.3 °C 30.16 in /  1021.2 hPa SSW 6.0 mph /  9.7 km/h 7.0 mph /  11.3 km/h 81 % 0.00 in /  0 mm 192 W/m2
12:30 52.7 °F /  11.5 °C 47.0 °F /  8.3 °C 30.16 in /  1021.2 hPa South 6.0 mph /  9.7 km/h 6.0 mph /  9.7 km/h 81 % 0.00 in /  0 mm 221 W/m2
12:35 52.7 °F /  11.5 °C 47.0 °F /  8.3 °C 30.15 in /  1020.9 hPa SSW 7.0 mph /  11.3 km/h 7.0 mph /  11.3 km/h 81 % 0.00 in /  0 mm 206 W/m2
12:40 52.7 °F /  11.5 °C 47.0 °F /  8.3 °C 30.15 in /  1020.9 hPa South 6.0 mph /  9.7 km/h 6.0 mph /  9.7 km/h 81 % 0.00 in /  0 mm 209 W/m2
12:50 52.8 °F /  11.6 °C 47.1 °F /  8.4 °C 30.14 in /  1020.5 hPa SSW 6.0 mph /  9.7 km/h 6.0 mph /  9.7 km/h 81 % 0.00 in /  0 mm 234 W/m2
12:55 53.1 °F /  11.7 °C 47.4 °F /  8.6 °C 30.14 in /  1020.5 hPa SW 6.0 mph /  9.7 km/h 6.0 mph /  9.7 km/h 81 % 0.00 in /  0 mm 155 W/m2
13:00 53.3 °F /  11.8 °C 47.3 °F /  8.5 °C 30.14 in /  1020.5 hPa SW 6.0 mph /  9.7 km/h 6.0 mph /  9.7 km/h 80 % 0.00 in /  0 mm 149 W/m2
13:05 53.6 °F /  12 °C 47.6 °F /  8.7 °C 30.14 in /  1020.5 hPa SW 6.0 mph /  9.7 km/h 8.0 mph /  12.9 km/h 80 % 0.00 in /  0 mm 148 W/m2
13:15 53.8 °F /  12.1 °C 47.8 °F /  8.8 °C 30.14 in /  1020.5 hPa SSW 6.0 mph /  9.7 km/h 7.0 mph /  11.3 km/h 80 % 0.00 in /  0 mm 188 W/m2
13:20 54.0 °F /  12.2 °C 47.6 °F /  8.7 °C 30.14 in /  1020.5 hPa SSW 6.0 mph /  9.7 km/h 6.0 mph /  9.7 km/h 79 % 0.00 in /  0 mm 183 W/m2
13:25 54.1 °F /  12.3 °C 47.7 °F /  8.7 °C 30.14 in /  1020.5 hPa SSW 6.0 mph /  9.7 km/h 6.0 mph /  9.7 km/h 79 % 0.00 in /  0 mm 209 W/m2
13:30 54.3 °F /  12.4 °C 47.9 °F /  8.8 °C 30.14 in /  1020.5 hPa SW 6.0 mph /  9.7 km/h 6.0 mph /  9.7 km/h 79 % 0.00 in /  0 mm 299 W/m2
13:40 55.0 °F /  12.8 °C 48.3 °F /  9.1 °C 30.13 in /  1020.2 hPa SSW 8.0 mph /  12.9 km/h 11.0 mph /  17.7 km/h 78 % 0.00 in /  0 mm 279 W/m2
13:50 55.1 °F /  12.8 °C 48.4 °F /  9.1 °C 30.13 in /  1020.2 hPa SW 7.0 mph /  11.3 km/h 7.0 mph /  11.3 km/h 78 % 0.00 in /  0 mm 207 W/m2
13:55 54.9 °F /  12.7 °C 47.8 °F /  8.8 °C 30.12 in /  1019.9 hPa SW 7.0 mph /  11.3 km/h 15.0 mph /  24.1 km/h 77 % 0.00 in /  0 mm 188 W/m2
14:00 54.5 °F /  12.5 °C 47.8 °F /  8.8 °C 30.12 in /  1019.9 hPa WSW 9.0 mph /  14.5 km/h 9.0 mph /  14.5 km/h 78 % 0.00 in /  0 mm 188 W/m2
14:10 54.3 °F /  12.4 °C 47.6 °F /  8.7 °C 30.12 in /  1019.9 hPa SSW 9.0 mph /  14.5 km/h 9.0 mph /  14.5 km/h 78 % 0.00 in /  0 mm 322 W/m2
14:15 54.5 °F /  12.5 °C 48.1 °F /  8.9 °C 30.11 in /  1019.5 hPa SSW 9.0 mph /  14.5 km/h 11.0 mph /  17.7 km/h 79 % 0.00 in /  0 mm 246 W/m2
14:20 54.3 °F /  12.4 °C 47.6 °F /  8.7 °C 30.11 in /  1019.5 hPa South 8.0 mph /  12.9 km/h 9.0 mph /  14.5 km/h 78 % 0.00 in /  0 mm 186 W/m2
14:25 54.0 °F /  12.2 °C 47.3 °F /  8.5 °C 30.11 in /  1019.5 hPa South 8.0 mph /  12.9 km/h 11.0 mph /  17.7 km/h 78 % 0.00 in /  0 mm 179 W/m2
14:35 53.7 °F /  12.1 °C 47.3 °F /  8.5 °C 30.11 in /  1019.5 hPa SSE 8.0 mph /  12.9 km/h 9.0 mph /  14.5 km/h 79 % 0.00 in /  0 mm 186 W/m2
14:40 53.9 °F /  12.2 °C 47.5 °F /  8.6 °C 30.10 in /  1019.2 hPa South 8.0 mph /  12.9 km/h 10.0 mph /  16.1 km/h 79 % 0.00 in /  0 mm 417 W/m2
14:45 54.2 °F /  12.3 °C 47.5 °F /  8.6 °C 30.10 in /  1019.2 hPa South 9.0 mph /  14.5 km/h 12.0 mph /  19.3 km/h 78 % 0.00 in /  0 mm 269 W/m2
14:50 54.5 °F /  12.5 °C 47.4 °F /  8.6 °C 30.11 in /  1019.5 hPa SSW 9.0 mph /  14.5 km/h 9.0 mph /  14.5 km/h 77 % 0.00 in /  0 mm 123 W/m2
14:55 54.2 °F /  12.3 °C 47.1 °F /  8.4 °C 30.10 in /  1019.2 hPa SSE 8.0 mph /  12.9 km/h 9.0 mph /  14.5 km/h 77 % 0.00 in /  0 mm 123 W/m2
15:05 53.7 °F /  12.1 °C 47.0 °F /  8.3 °C 30.11 in /  1019.5 hPa SSE 8.0 mph /  12.9 km/h 13.0 mph /  20.9 km/h 78 % 0.00 in /  0 mm 123 W/m2
15:15 53.4 °F /  11.9 °C 46.7 °F /  8.2 °C 30.10 in /  1019.2 hPa SE 7.0 mph /  11.3 km/h 7.0 mph /  11.3 km/h 78 % 0.00 in /  0 mm 109 W/m2
15:20 53.3 °F /  11.8 °C 47.0 °F /  8.3 °C 30.10 in /  1019.2 hPa SSE 6.0 mph /  9.7 km/h 6.0 mph /  9.7 km/h 79 % 0.00 in /  0 mm 120 W/m2
15:25 53.3 °F /  11.8 °C 47.0 °F /  8.3 °C 30.10 in /  1019.2 hPa SSE 4.0 mph /  6.4 km/h 6.0 mph /  9.7 km/h 79 % 0.00 in /  0 mm 158 W/m2
15:35 53.4 °F /  11.9 °C 47.0 °F /  8.3 °C 30.10 in /  1019.2 hPa South 4.0 mph /  6.4 km/h 6.0 mph /  9.7 km/h 79 % 0.00 in /  0 mm 258 W/m2
15:40 53.4 °F /  11.9 °C 47.0 °F /  8.3 °C 30.10 in /  1019.2 hPa South 5.0 mph /  8 km/h 6.0 mph /  9.7 km/h 79 % 0.00 in /  0 mm 130 W/m2
15:45 53.3 °F /  11.8 °C 47.0 °F /  8.3 °C 30.10 in /  1019.2 hPa SSW 4.0 mph /  6.4 km/h 6.0 mph /  9.7 km/h 79 % 0.00 in /  0 mm 223 W/m2
15:55 53.1 °F /  11.7 °C 47.1 °F /  8.4 °C 30.10 in /  1019.2 hPa South 4.0 mph /  6.4 km/h 6.0 mph /  9.7 km/h 80 % 0.00 in /  0 mm 63 W/m2
16:00 52.9 °F /  11.6 °C 46.9 °F /  8.3 °C 30.10 in /  1019.2 hPa SSE 3.0 mph /  4.8 km/h 3.0 mph /  4.8 km/h 80 % 0.00 in /  0 mm 63 W/m2
16:05 52.9 °F /  11.6 °C 46.9 °F /  8.3 °C 30.10 in /  1019.2 hPa SSE 1.0 mph /  1.6 km/h 6.0 mph /  9.7 km/h 80 % 0.00 in /  0 mm 62 W/m2
16:15 52.9 °F /  11.6 °C 46.9 °F /  8.3 °C 30.11 in /  1019.5 hPa WSW 1.0 mph /  1.6 km/h 6.0 mph /  9.7 km/h 80 % 0.00 in /  0 mm 58 W/m2
16:20 52.9 °F /  11.6 °C 46.9 °F /  8.3 °C 30.11 in /  1019.5 hPa SSW 3.0 mph /  4.8 km/h 6.0 mph /  9.7 km/h 80 % 0.00 in /  0 mm 47 W/m2
16:30 52.7 °F /  11.5 °C 47.0 °F /  8.3 °C 30.10 in /  1019.2 hPa SSW 5.0 mph /  8 km/h 7.0 mph /  11.3 km/h 81 % 0.00 in /  0 mm 53 W/m2
16:35 52.5 °F /  11.4 °C 46.8 °F /  8.2 °C 30.10 in /  1019.2 hPa South 7.0 mph /  11.3 km/h 7.0 mph /  11.3 km/h 81 % 0.00 in /  0 mm 49 W/m2
16:45 52.1 °F /  11.2 °C 46.4 °F /  8 °C 30.10 in /  1019.2 hPa SSW 4.0 mph /  6.4 km/h 7.0 mph /  11.3 km/h 81 % 0.00 in /  0 mm 28 W/m2
16:50 52.0 °F /  11.1 °C 46.7 °F /  8.2 °C 30.10 in /  1019.2 hPa SSE 3.0 mph /  4.8 km/h 6.0 mph /  9.7 km/h 82 % 0.00 in /  0 mm 26 W/m2
16:55 51.9 °F /  11.1 °C 46.6 °F /  8.1 °C 30.10 in /  1019.2 hPa SSE 2.0 mph /  3.2 km/h 6.0 mph /  9.7 km/h 82 % 0.00 in /  0 mm 19 W/m2
17:00 51.7 °F /  10.9 °C 46.4 °F /  8 °C 30.10 in /  1019.2 hPa SSE 2.0 mph /  3.2 km/h 6.0 mph /  9.7 km/h 82 % 0.00 in /  0 mm 16 W/m2
17:05 51.6 °F /  10.9 °C 46.3 °F /  7.9 °C 30.10 in /  1019.2 hPa SE 4.0 mph /  6.4 km/h 6.0 mph /  9.7 km/h 82 % 0.00 in /  0 mm 14 W/m2
17:15 51.3 °F /  10.7 °C 46.3 °F /  7.9 °C 30.10 in /  1019.2 hPa South 4.0 mph /  6.4 km/h 6.0 mph /  9.7 km/h 83 % 0.00 in /  0 mm 9 W/m2
17:20 51.1 °F /  10.6 °C 46.4 °F /  8 °C 30.10 in /  1019.2 hPa SE 4.0 mph /  6.4 km/h 6.0 mph /  9.7 km/h 84 % 0.00 in /  0 mm 7 W/m2
17:25 50.9 °F /  10.5 °C 46.2 °F /  7.9 °C 30.10 in /  1019.2 hPa SSE 4.0 mph /  6.4 km/h 9.0 mph /  14.5 km/h 84 % 0.00 in /  0 mm 7 W/m2
17:30 50.8 °F /  10.4 °C 46.1 °F /  7.8 °C 30.10 in /  1019.2 hPa South 4.0 mph /  6.4 km/h 4.0 mph /  6.4 km/h 84 % 0.00 in /  0 mm 0 W/m2
17:35 50.6 °F /  10.3 °C 45.9 °F /  7.7 °C 30.10 in /  1019.2 hPa SSW 3.0 mph /  4.8 km/h 6.0 mph /  9.7 km/h 84 % 0.00 in /  0 mm 0 W/m2
17:40 50.5 °F /  10.3 °C 46.2 °F /  7.9 °C 30.10 in /  1019.2 hPa SW 2.0 mph /  3.2 km/h 7.0 mph /  11.3 km/h 85 % 0.00 in /  0 mm 0 W/m2
17:45 50.4 °F /  10.2 °C 46.1 °F /  7.8 °C 30.10 in /  1019.2 hPa WSW 3.0 mph /  4.8 km/h 7.0 mph /  11.3 km/h 85 % 0.00 in /  0 mm 0 W/m2
17:55 50.2 °F /  10.1 °C 45.9 °F /  7.7 °C 30.10 in /  1019.2 hPa WSW 5.0 mph /  8 km/h 7.0 mph /  11.3 km/h 85 % 0.00 in /  0 mm 0 W/m2
18:00 50.2 °F /  10.1 °C 45.9 °F /  7.7 °C 30.10 in /  1019.2 hPa WSW 6.0 mph /  9.7 km/h 9.0 mph /  14.5 km/h 85 % 0.00 in /  0 mm 0 W/m2
18:05 50.1 °F /  10.1 °C 45.8 °F /  7.7 °C 30.10 in /  1019.2 hPa SW 7.0 mph /  11.3 km/h 9.0 mph /  14.5 km/h 85 % 0.00 in /  0 mm 0 W/m2
18:10 50.2 °F /  10.1 °C 45.9 °F /  7.7 °C 30.10 in /  1019.2 hPa SW 8.0 mph /  12.9 km/h 8.0 mph /  12.9 km/h 85 % 0.00 in /  0 mm 0 W/m2
18:20 50.2 °F /  10.1 °C 45.9 °F /  7.7 °C 30.10 in /  1019.2 hPa SW 9.0 mph /  14.5 km/h 9.0 mph /  14.5 km/h 85 % 0.00 in /  0 mm 0 W/m2
18:25 50.1 °F /  10.1 °C 45.8 °F /  7.7 °C 30.10 in /  1019.2 hPa SW 9.0 mph /  14.5 km/h 9.0 mph /  14.5 km/h 85 % 0.00 in /  0 mm 0 W/m2
18:30 50.0 °F /  10 °C 46.0 °F /  7.8 °C 30.10 in /  1019.2 hPa SW 7.0 mph /  11.3 km/h 7.0 mph /  11.3 km/h 86 % 0.00 in /  0 mm 0 W/m2
18:40 49.8 °F /  9.9 °C 45.8 °F /  7.7 °C 30.11 in /  1019.5 hPa SW 4.0 mph /  6.4 km/h 6.0 mph /  9.7 km/h 86 % 0.00 in /  0 mm 0 W/m2
18:45 49.7 °F /  9.8 °C 45.7 °F /  7.6 °C 30.11 in /  1019.5 hPa SW 4.0 mph /  6.4 km/h 6.0 mph /  9.7 km/h 86 % 0.00 in /  0 mm 0 W/m2
18:50 49.6 °F /  9.8 °C 45.6 °F /  7.6 °C 30.10 in /  1019.2 hPa SW 3.0 mph /  4.8 km/h 3.0 mph /  4.8 km/h 86 % 0.00 in /  0 mm 0 W/m2
18:55 49.5 °F /  9.7 °C 45.5 °F /  7.5 °C 30.10 in /  1019.2 hPa SW 2.0 mph /  3.2 km/h 4.0 mph /  6.4 km/h 86 % 0.00 in /  0 mm 0 W/m2
19:00 49.3 °F /  9.6 °C 45.6 °F /  7.6 °C 30.10 in /  1019.2 hPa WSW 3.0 mph /  4.8 km/h 6.0 mph /  9.7 km/h 87 % 0.00 in /  0 mm 0 W/m2
19:05 49.2 °F /  9.6 °C 45.5 °F /  7.5 °C 30.10 in /  1019.2 hPa WSW 5.0 mph /  8 km/h 7.0 mph /  11.3 km/h 87 % 0.00 in /  0 mm 0 W/m2
19:10 49.1 °F /  9.5 °C 45.4 °F /  7.4 °C 30.10 in /  1019.2 hPa SSW 6.0 mph /  9.7 km/h 6.0 mph /  9.7 km/h 87 % 0.00 in /  0 mm 0 W/m2
19:20 48.8 °F /  9.3 °C 45.4 °F /  7.4 °C 30.11 in /  1019.5 hPa WSW 6.0 mph /  9.7 km/h 8.0 mph /  12.9 km/h 88 % 0.00 in /  0 mm 0 W/m2
19:25 48.7 °F /  9.3 °C 45.3 °F /  7.4 °C 30.11 in /  1019.5 hPa WSW 6.0 mph /  9.7 km/h 8.0 mph /  12.9 km/h 88 % 0.00 in /  0 mm 0 W/m2
19:30 48.7 °F /  9.3 °C 45.3 °F /  7.4 °C 30.11 in /  1019.5 hPa WSW 6.0 mph /  9.7 km/h 6.0 mph /  9.7 km/h 88 % 0.00 in /  0 mm 0 W/m2
19:35 48.6 °F /  9.2 °C 45.2 °F /  7.3 °C 30.11 in /  1019.5 hPa WSW 5.0 mph /  8 km/h 6.0 mph /  9.7 km/h 88 % 0.00 in /  0 mm 0 W/m2
19:40 48.6 °F /  9.2 °C 45.2 °F /  7.3 °C 30.11 in /  1019.5 hPa WSW 5.0 mph /  8 km/h 5.0 mph /  8 km/h 88 % 0.00 in /  0 mm 0 W/m2
19:45 48.6 °F /  9.2 °C 45.5 °F /  7.5 °C 30.12 in /  1019.9 hPa West 4.0 mph /  6.4 km/h 6.0 mph /  9.7 km/h 89 % 0.00 in /  0 mm 0 W/m2
19:50 48.6 °F /  9.2 °C 45.5 °F /  7.5 °C 30.12 in /  1019.9 hPa WSW 3.0 mph /  4.8 km/h 3.0 mph /  4.8 km/h 89 % 0.00 in /  0 mm 0 W/m2
20:00 48.8 °F /  9.3 °C 45.7 °F /  7.6 °C 30.11 in /  1019.5 hPa WNW 6.0 mph /  9.7 km/h 7.0 mph /  11.3 km/h 89 % 0.00 in /  0 mm 0 W/m2
20:10 49.7 °F /  9.8 °C 46.0 °F /  7.8 °C 30.11 in /  1019.5 hPa WSW 9.0 mph /  14.5 km/h 18.0 mph /  29 km/h 87 % 0.00 in /  0 mm 0 W/m2
20:15 50.0 °F /  10 °C 46.0 °F /  7.8 °C 30.12 in /  1019.9 hPa WSW 10.0 mph /  16.1 km/h 18.0 mph /  29 km/h 86 % 0.00 in /  0 mm 0 W/m2
20:20 50.2 °F /  10.1 °C 45.9 °F /  7.7 °C 30.11 in /  1019.5 hPa WNW 11.0 mph /  17.7 km/h 16.0 mph /  25.7 km/h 85 % 0.00 in /  0 mm 0 W/m2
20:25 50.3 °F /  10.2 °C 46.0 °F /  7.8 °C 30.12 in /  1019.9 hPa West 11.0 mph /  17.7 km/h 16.0 mph /  25.7 km/h 85 % 0.00 in /  0 mm 0 W/m2
20:30 50.4 °F /  10.2 °C 45.7 °F /  7.6 °C 30.12 in /  1019.9 hPa WSW 10.0 mph /  16.1 km/h 13.0 mph /  20.9 km/h 84 % 0.00 in /  0 mm 0 W/m2
20:35 50.4 °F /  10.2 °C 45.7 °F /  7.6 °C 30.12 in /  1019.9 hPa West 11.0 mph /  17.7 km/h 16.0 mph /  25.7 km/h 84 % 0.00 in /  0 mm 0 W/m2
20:40 50.4 °F /  10.2 °C 45.7 °F /  7.6 °C 30.11 in /  1019.5 hPa WSW 12.0 mph /  19.3 km/h 12.0 mph /  19.3 km/h 84 % 0.00 in /  0 mm 0 W/m2
20:50 50.2 °F /  10.1 °C 45.9 °F /  7.7 °C 30.11 in /  1019.5 hPa WSW 13.0 mph /  20.9 km/h 13.0 mph /  20.9 km/h 85 % 0.00 in /  0 mm 0 W/m2
20:55 50.1 °F /  10.1 °C 45.8 °F /  7.7 °C 30.11 in /  1019.5 hPa WSW 12.0 mph /  19.3 km/h 13.0 mph /  20.9 km/h 85 % 0.00 in /  0 mm 0 W/m2
21:00 50.1 °F /  10.1 °C 46.1 °F /  7.8 °C 30.11 in /  1019.5 hPa WSW 10.0 mph /  16.1 km/h 15.0 mph /  24.1 km/h 86 % 0.00 in /  0 mm 0 W/m2
21:05 50.0 °F /  10 °C 46.0 °F /  7.8 °C 30.11 in /  1019.5 hPa SW 10.0 mph /  16.1 km/h 15.0 mph /  24.1 km/h 86 % 0.00 in /  0 mm 0 W/m2
21:10 50.0 °F /  10 °C 46.0 °F /  7.8 °C 30.11 in /  1019.5 hPa WSW 10.0 mph /  16.1 km/h 11.0 mph /  17.7 km/h 86 % 0.00 in /  0 mm 0 W/m2
21:15 50.0 °F /  10 °C 46.0 °F /  7.8 °C 30.11 in /  1019.5 hPa SW 10.0 mph /  16.1 km/h 12.0 mph /  19.3 km/h 86 % 0.00 in /  0 mm 0 W/m2
21:20 49.9 °F /  9.9 °C 45.9 °F /  7.7 °C 30.11 in /  1019.5 hPa SW 10.0 mph /  16.1 km/h 10.0 mph /  16.1 km/h 86 % 0.00 in /  0 mm 0 W/m2
21:30 49.8 °F /  9.9 °C 45.8 °F /  7.7 °C 30.11 in /  1019.5 hPa SW 9.0 mph /  14.5 km/h 10.0 mph /  16.1 km/h 86 % 0.00 in /  0 mm 0 W/m2
21:35 49.7 °F /  9.8 °C 45.7 °F /  7.6 °C 30.11 in /  1019.5 hPa WSW 9.0 mph /  14.5 km/h 10.0 mph /  16.1 km/h 86 % 0.00 in /  0 mm 0 W/m2
21:40 49.7 °F /  9.8 °C 45.7 °F /  7.6 °C 30.11 in /  1019.5 hPa WSW 9.0 mph /  14.5 km/h 10.0 mph /  16.1 km/h 86 % 0.00 in /  0 mm 0 W/m2
21:45 49.7 °F /  9.8 °C 45.7 °F /  7.6 °C 30.11 in /  1019.5 hPa WSW 9.0 mph /  14.5 km/h 10.0 mph /  16.1 km/h 86 % 0.00 in /  0 mm 0 W/m2
21:55 49.7 °F /  9.8 °C 45.7 °F /  7.6 °C 30.10 in /  1019.2 hPa SW 9.0 mph /  14.5 km/h 14.0 mph /  22.5 km/h 86 % 0.00 in /  0 mm 0 W/m2
22:00 49.7 °F /  9.8 °C 45.7 °F /  7.6 °C 30.10 in /  1019.2 hPa WSW 10.0 mph /  16.1 km/h 11.0 mph /  17.7 km/h 86 % 0.00 in /  0 mm 0 W/m2
22:10 49.7 °F /  9.8 °C 45.7 °F /  7.6 °C 30.09 in /  1018.8 hPa SW 9.0 mph /  14.5 km/h 10.0 mph /  16.1 km/h 86 % 0.00 in /  0 mm 0 W/m2
22:15 49.6 °F /  9.8 °C 45.6 °F /  7.6 °C 30.09 in /  1018.8 hPa WSW 10.0 mph /  16.1 km/h 10.0 mph /  16.1 km/h 86 % 0.00 in /  0 mm 0 W/m2
22:20 49.6 °F /  9.8 °C 45.6 °F /  7.6 °C 30.09 in /  1018.8 hPa SW 10.0 mph /  16.1 km/h 10.0 mph /  16.1 km/h 86 % 0.00 in /  0 mm 0 W/m2
22:25 49.4 °F /  9.7 °C 45.4 °F /  7.4 °C 30.08 in /  1018.5 hPa WSW 9.0 mph /  14.5 km/h 14.0 mph /  22.5 km/h 86 % 0.00 in /  0 mm 0 W/m2
22:30 49.3 °F /  9.6 °C 45.3 °F /  7.4 °C 30.08 in /  1018.5 hPa WSW 9.0 mph /  14.5 km/h 9.0 mph /  14.5 km/h 86 % 0.00 in /  0 mm 0 W/m2
22:35 49.2 °F /  9.6 °C 45.2 °F /  7.3 °C 30.08 in /  1018.5 hPa SW 9.0 mph /  14.5 km/h 12.0 mph /  19.3 km/h 86 % 0.00 in /  0 mm 0 W/m2
22:40 49.1 °F /  9.5 °C 45.1 °F /  7.3 °C 30.08 in /  1018.5 hPa WSW 9.0 mph /  14.5 km/h 11.0 mph /  17.7 km/h 86 % 0.00 in /  0 mm 0 W/m2
22:45 49.1 °F /  9.5 °C 45.1 °F /  7.3 °C 30.08 in /  1018.5 hPa SW 9.0 mph /  14.5 km/h 11.0 mph /  17.7 km/h 86 % 0.00 in /  0 mm 0 W/m2
22:55 49.0 °F /  9.4 °C 45.0 °F /  7.2 °C 30.07 in /  1018.2 hPa SW 8.0 mph /  12.9 km/h 9.0 mph /  14.5 km/h 86 % 0.00 in /  0 mm 0 W/m2
23:00 49.0 °F /  9.4 °C 45.0 °F /  7.2 °C 30.07 in /  1018.2 hPa SW 9.0 mph /  14.5 km/h 9.0 mph /  14.5 km/h 86 % 0.00 in /  0 mm 0 W/m2
23:05 49.1 °F /  9.5 °C 45.1 °F /  7.3 °C 30.07 in /  1018.2 hPa SW 9.0 mph /  14.5 km/h 11.0 mph /  17.7 km/h 86 % 0.00 in /  0 mm 0 W/m2
23:10 49.3 °F /  9.6 °C 45.3 °F /  7.4 °C 30.07 in /  1018.2 hPa SSW 10.0 mph /  16.1 km/h 10.0 mph /  16.1 km/h 86 % 0.00 in /  0 mm 0 W/m2
23:15 49.4 °F /  9.7 °C 45.4 °F /  7.4 °C 30.07 in /  1018.2 hPa West 10.0 mph /  16.1 km/h 13.0 mph /  20.9 km/h 86 % 0.00 in /  0 mm 0 W/m2
23:20 49.5 °F /  9.7 °C 45.5 °F /  7.5 °C 30.08 in /  1018.5 hPa WSW 9.0 mph /  14.5 km/h 9.0 mph /  14.5 km/h 86 % 0.00 in /  0 mm 0 W/m2
23:25 49.6 °F /  9.8 °C 45.6 °F /  7.6 °C 30.08 in /  1018.5 hPa WSW 8.0 mph /  12.9 km/h 9.0 mph /  14.5 km/h 86 % 0.00 in /  0 mm 0 W/m2
23:35 49.8 °F /  9.9 °C 45.5 °F /  7.5 °C 30.08 in /  1018.5 hPa SW 8.0 mph /  12.9 km/h 16.0 mph /  25.7 km/h 85 % 0.00 in /  0 mm 0 W/m2
23:45 50.0 °F /  10 °C 45.7 °F /  7.6 °C 30.08 in /  1018.5 hPa WSW 11.0 mph /  17.7 km/h 14.0 mph /  22.5 km/h 85 % 0.00 in /  0 mm 0 W/m2
23:50 50.0 °F /  10 °C 45.7 °F /  7.6 °C 30.07 in /  1018.2 hPa SW 10.0 mph /  16.1 km/h 11.0 mph /  17.7 km/h 85 % 0.00 in /  0 mm 0 W/m2
23:55 50.0 °F /  10 °C 45.7 °F /  7.6 °C 30.08 in /  1018.5 hPa WSW 9.0 mph /  14.5 km/h 11.0 mph /  17.7 km/h 85 % 0.00 in /  0 mm 0 W/m2
Delerius-Weather
Compliments of Weather Underground - 2 mb

Data updates at regular intervals.